Time;durP1;ratioP1;P1;durP2;ratioP2;P2;SDS_P1;SDS_P2;PMS_P1;PMS_P2;Temp;Humidity;BMP_temperature;BMP_pressure;BME280_temperature;BME280_humidity;BME280_pressure;Samples;Min_cycle;Max_cycle;Signal;HPM_P1;HPM_P2
2023/06/18 00:00:53;;;;;;;7.25;5.28;;;;;;;;;;5057579;28;20032;-60
2023/06/18 00:03:19;;;;;;;7.32;5.57;;;;;;;;;;5057226;28;20489;-60
2023/06/18 00:05:45;;;;;;;5.57;4.97;;;;;;;;;;5057573;28;20414;-60
2023/06/18 00:08:11;;;;;;;6.85;5.07;;;;;;;;;;5057332;28;20064;-60
2023/06/18 00:10:37;;;;;;;6.57;5.13;;;;;;;;;;5057168;28;20525;-60
2023/06/18 00:13:03;;;;;;;8.48;5.15;;;;;;;;;;5057373;28;20100;-60
2023/06/18 00:15:29;;;;;;;6.47;5.65;;;;;;;;;;5057226;28;20373;-60
2023/06/18 00:17:55;;;;;;;6.78;5.63;;;;;;;;;;5057298;28;20021;-60
2023/06/18 00:20:22;;;;;;;6.32;5.72;;;;;;;;;;5056878;28;20471;-60
2023/06/18 00:22:48;;;;;;;5.72;5.13;;;;;;;;;;5057225;28;20151;-60
2023/06/18 00:25:14;;;;;;;6.50;5.53;;;;;;;;;;5056883;28;20017;-60
2023/06/18 00:27:41;;;;;;;6.07;4.93;;;;;;;;;;5057711;28;20458;-60
2023/06/18 00:30:08;;;;;;;5.57;4.93;;;;;;;;;;5056841;28;20017;-60
2023/06/18 00:32:34;;;;;;;6.30;5.35;;;;;;;;;;5056730;28;20029;-60
2023/06/18 00:35:00;;;;;;;5.78;5.13;;;;;;;;;;5056968;28;20017;-60
2023/06/18 00:37:27;;;;;;;6.28;5.63;;;;;;;;;;5057287;28;20029;-60
2023/06/18 00:39:54;;;;;;;6.05;5.45;;;;;;;;;;5057075;28;20375;-60
2023/06/18 00:42:20;;;;;;;5.70;5.13;;;;;;;;;;5056232;28;20467;-60
2023/06/18 00:44:46;;;;;;;6.70;6.00;;;;;;;;;;5056514;28;20029;-60
2023/06/18 00:47:12;;;;;;;6.85;5.88;;;;;;;;;;5056909;28;20105;-60
2023/06/18 00:49:38;;;;;;;9.20;6.75;;;;;;;;;;5056523;28;20025;-60
2023/06/18 00:52:05;;;;;;;7.45;6.10;;;;;;;;;;5056410;28;20051;-60
2023/06/18 00:54:32;;;;;;;7.32;5.40;;;;;;;;;;5055179;28;20366;-60
2023/06/18 00:56:59;;;;;;;6.88;5.35;;;;;;;;;;5057162;28;20028;-60
2023/06/18 00:59:27;;;;;;;8.25;6.13;;;;;;;;;;5057001;28;20039;-60
2023/06/18 01:01:53;;;;;;;5.43;4.93;;;;;;;;;;5056234;28;20033;-60
2023/06/18 01:04:20;;;;;;;5.60;5.07;;;;;;;;;;5056176;28;20079;-60
2023/06/18 01:06:51;;;;;;;8.32;6.13;;;;;;;;;;5056506;28;20025;-60
2023/06/18 01:09:17;;;;;;;;;;;;;;;;;;5057371;28;20040;-60
2023/06/18 01:11:45;;;;;;;6.45;5.25;;;;;;;;;;5055252;28;19904;-60
2023/06/18 01:14:11;;;;;;;7.20;5.38;;;;;;;;;;5054432;28;20032;-60
2023/06/18 01:16:46;;;;;;;7.75;6.30;;;;;;;;;;5056679;28;20126;-60
2023/06/18 01:19:21;;;;;;;6.60;5.75;;;;;;;;;;5055838;28;20135;-60
2023/06/18 01:21:49;;;;;;;6.10;5.50;;;;;;;;;;5056452;28;20044;-60
2023/06/18 01:24:23;;;;;;;6.90;5.82;;;;;;;;;;5055843;28;20029;-60
2023/06/18 01:26:49;;;;;;;6.10;5.50;;;;;;;;;;5056277;28;20383;-60
2023/06/18 01:29:16;;;;;;;8.50;6.10;;;;;;;;;;5055676;28;20025;-60
2023/06/18 01:31:44;;;;;;;6.22;5.60;;;;;;;;;;5056233;28;20108;-60
2023/06/18 01:34:12;;;;;;;6.53;5.07;;;;;;;;;;5055798;28;20057;-60
2023/06/18 01:36:39;;;;;;;8.60;5.72;;;;;;;;;;5056146;28;20083;-60
2023/06/18 01:39:25;;;;;;;8.00;6.45;;;;;;;;;;5055731;28;20119;-60
2023/06/18 01:41:56;;;;;;;6.90;6.20;;;;;;;;;;5044297;28;20068;-60
2023/06/18 01:44:24;;;;;;;6.20;5.60;;;;;;;;;;5056031;28;20025;-60
2023/06/18 01:46:53;;;;;;;9.13;6.38;;;;;;;;;;5055412;28;20059;-60
2023/06/18 01:49:20;;;;;;;6.70;5.78;;;;;;;;;;5055652;28;20062;-60
2023/06/18 01:51:47;;;;;;;8.05;5.65;;;;;;;;;;5056016;28;20091;-60
2023/06/18 01:54:13;;;;;;;7.30;4.97;;;;;;;;;;5055279;28;20462;-60
2023/06/18 01:56:39;;;;;;;6.20;5.45;;;;;;;;;;5055541;28;20045;-60
2023/06/18 01:59:05;;;;;;;9.13;5.47;;;;;;;;;;5055030;28;20098;-60
2023/06/18 02:01:31;;;;;;;6.40;5.80;;;;;;;;;;5054919;28;20459;-60
2023/06/18 02:03:57;;;;;;;6.78;6.05;;;;;;;;;;5055533;28;20017;-60
2023/06/18 02:06:23;;;;;;;6.07;5.35;;;;;;;;;;5055434;28;20363;-60
2023/06/18 02:08:49;;;;;;;7.10;5.93;;;;;;;;;;5055544;28;20021;-60
2023/06/18 02:11:15;;;;;;;6.88;5.75;;;;;;;;;;5055172;28;20463;-59
2023/06/18 02:13:41;;;;;;;7.57;5.75;;;;;;;;;;5054601;28;20028;-60
2023/06/18 02:16:07;;;;;;;6.68;5.20;;;;;;;;;;5054737;28;20475;-60
2023/06/18 02:18:33;;;;;;;6.30;5.45;;;;;;;;;;5054464;28;20025;-60
2023/06/18 02:20:59;;;;;;;12.20;5.07;;;;;;;;;;5055151;28;20029;-59
2023/06/18 02:23:25;;;;;;;7.82;6.05;;;;;;;;;;5053595;28;20025;-60
2023/06/18 02:25:51;;;;;;;6.88;6.10;;;;;;;;;;5054565;28;20021;-59
2023/06/18 02:28:17;;;;;;;7.00;6.30;;;;;;;;;;5054911;28;20025;-60
2023/06/18 02:30:43;;;;;;;8.63;6.70;;;;;;;;;;5054581;28;20029;-59
2023/06/18 02:33:10;;;;;;;5.80;5.07;;;;;;;;;;5054546;28;20044;-60
2023/06/18 02:35:36;;;;;;;6.47;5.70;;;;;;;;;;5054668;28;20029;-60
2023/06/18 02:38:02;;;;;;;7.05;6.28;;;;;;;;;;5055108;28;20470;-60
2023/06/18 02:40:28;;;;;;;8.05;6.00;;;;;;;;;;5054830;28;20345;-60
2023/06/18 02:42:56;;;;;;;8.25;6.43;;;;;;;;;;5054137;28;20043;-60
2023/06/18 02:45:24;;;;;;;7.15;6.22;;;;;;;;;;5054821;28;20465;-59
2023/06/18 02:47:50;;;;;;;7.50;6.78;;;;;;;;;;5055348;28;20063;-60
2023/06/18 02:50:17;;;;;;;9.15;6.90;;;;;;;;;;5054220;28;20079;-60
2023/06/18 02:52:44;;;;;;;7.57;6.85;;;;;;;;;;5054712;28;20394;-59
2023/06/18 02:55:11;;;;;;;7.40;6.70;;;;;;;;;;5054123;28;20029;-60
2023/06/18 02:57:37;;;;;;;8.98;7.07;;;;;;;;;;5054720;28;20116;-60
2023/06/18 03:00:04;;;;;;;8.00;7.18;;;;;;;;;;5054225;28;20040;-60
2023/06/18 03:02:31;;;;;;;8.07;6.72;;;;;;;;;;5053755;28;20108;-59
2023/06/18 03:04:57;;;;;;;7.93;6.60;;;;;;;;;;5053946;28;20530;-59
2023/06/18 03:07:23;;;;;;;7.53;6.65;;;;;;;;;;5053935;28;20053;-60
2023/06/18 03:09:49;;;;;;;6.63;5.93;;;;;;;;;;5053770;28;20417;-59
2023/06/18 03:12:15;;;;;;;6.82;6.13;;;;;;;;;;5054366;28;20025;-59
2023/06/18 03:14:41;;;;;;;6.97;6.28;;;;;;;;;;5053837;28;20479;-59
2023/06/18 03:17:07;;;;;;;8.13;6.70;;;;;;;;;;5053902;28;20405;-59
2023/06/18 03:19:33;;;;;;;7.22;6.28;;;;;;;;;;5053677;28;20033;-59
2023/06/18 03:21:59;;;;;;;8.48;6.53;;;;;;;;;;5053749;28;20025;-59
2023/06/18 03:24:25;;;;;;;12.00;8.00;;;;;;;;;;5053679;28;20025;-59
2023/06/18 03:26:51;;;;;;;22.48;6.93;;;;;;;;;;5053773;28;20035;-59
2023/06/18 03:29:17;;;;;;;8.18;6.97;;;;;;;;;;5054156;28;20067;-59
2023/06/18 03:31:45;;;;;;;10.77;6.43;;;;;;;;;;5054476;28;20056;-59
2023/06/18 03:34:12;;;;;;;6.97;6.28;;;;;;;;;;5053297;28;20048;-59
2023/06/18 03:36:41;;;;;;;7.43;6.63;;;;;;;;;;5054515;28;20033;-59
2023/06/18 03:39:11;;;;;;;7.63;6.28;;;;;;;;;;5053897;28;20013;-59
2023/06/18 03:41:37;;;;;;;7.38;5.70;;;;;;;;;;5053554;28;20033;-59
2023/06/18 03:44:03;;;;;;;7.43;6.00;;;;;;;;;;5053581;28;20024;-59
2023/06/18 03:46:29;;;;;;;6.72;5.63;;;;;;;;;;5053945;28;20021;-59
2023/06/18 03:48:55;;;;;;;6.40;5.80;;;;;;;;;;5054105;28;20029;-59
2023/06/18 03:51:21;;;;;;;7.57;5.85;;;;;;;;;;5054162;28;20036;-59
2023/06/18 03:53:48;;;;;;;6.95;5.68;;;;;;;;;;5053715;28;20351;-59
2023/06/18 03:56:14;;;;;;;7.32;6.22;;;;;;;;;;5053866;28;20341;-59
2023/06/18 03:58:40;;;;;;;6.72;5.50;;;;;;;;;;5053440;28;20108;-59
2023/06/18 04:01:07;;;;;;;9.00;6.32;;;;;;;;;;5053463;28;20167;-59
2023/06/18 04:03:33;;;;;;;6.50;5.85;;;;;;;;;;5053928;28;20075;-59
2023/06/18 04:05:59;;;;;;;6.43;4.80;;;;;;;;;;5054196;28;20027;-59
2023/06/18 04:08:25;;;;;;;7.05;5.78;;;;;;;;;;5053292;28;20100;-59
2023/06/18 04:10:51;;;;;;;6.85;5.38;;;;;;;;;;5053380;28;20025;-59
2023/06/18 04:13:18;;;;;;;6.00;5.40;;;;;;;;;;5053684;28;20025;-59
2023/06/18 04:15:44;;;;;;;5.90;5.00;;;;;;;;;;5053939;28;20053;-60
2023/06/18 04:18:10;;;;;;;6.57;4.88;;;;;;;;;;5053064;28;20104;-60
2023/06/18 04:20:36;;;;;;;5.75;5.15;;;;;;;;;;5053499;28;20033;-59
2023/06/18 04:23:02;;;;;;;5.97;5.38;;;;;;;;;;5053000;28;20063;-60
2023/06/18 04:25:28;;;;;;;6.35;4.88;;;;;;;;;;5053791;28;20029;-60
2023/06/18 04:27:55;;;;;;;6.28;5.13;;;;;;;;;;5053774;28;20071;-60
2023/06/18 04:30:21;;;;;;;6.40;4.82;;;;;;;;;;5053509;28;20098;-59
2023/06/18 04:32:47;;;;;;;5.55;4.43;;;;;;;;;;5053433;28;20017;-60
2023/06/18 04:35:13;;;;;;;5.30;4.38;;;;;;;;;;5053230;28;20029;-59
2023/06/18 04:37:39;;;;;;;5.55;4.63;;;;;;;;;;5053760;28;20056;-60
2023/06/18 04:40:09;;;;;;;6.97;5.00;;;;;;;;;;5053534;28;20043;-60
2023/06/18 04:42:38;;;;;;;5.07;4.40;;;;;;;;;;5053400;28;20032;-59
2023/06/18 04:45:04;;;;;;;5.10;4.60;;;;;;;;;;5053148;28;20463;-60
2023/06/18 04:47:32;;;;;;;6.35;4.85;;;;;;;;;;5056981;28;20040;-60
2023/06/18 04:49:58;;;;;;;4.95;4.32;;;;;;;;;;5056623;28;20074;-60
2023/06/18 04:52:24;;;;;;;6.30;4.60;;;;;;;;;;5056571;28;20029;-60
2023/06/18 04:54:52;;;;;;;7.55;4.53;;;;;;;;;;5056171;28;20035;-60
2023/06/18 04:57:19;;;;;;;6.25;5.65;;;;;;;;;;5056899;28;20032;-60
2023/06/18 04:59:46;;;;;;;5.60;5.00;;;;;;;;;;5056307;28;20029;-60
2023/06/18 05:02:12;;;;;;;5.82;4.95;;;;;;;;;;5056824;28;20413;-60
2023/06/18 05:04:38;;;;;;;6.72;4.78;;;;;;;;;;5055981;28;20017;-60
2023/06/18 05:07:05;;;;;;;5.47;4.95;;;;;;;;;;5056564;28;20032;-60
2023/06/18 05:09:31;;;;;;;5.75;4.78;;;;;;;;;;5056925;28;20363;-60
2023/06/18 05:11:57;;;;;;;5.03;4.22;;;;;;;;;;5056102;28;20025;-60
2023/06/18 05:14:23;;;;;;;7.10;4.78;;;;;;;;;;5055900;28;20034;-60
2023/06/18 05:16:49;;;;;;;5.90;5.07;;;;;;;;;;5056087;28;20071;-60
2023/06/18 05:19:14;;;;;;;6.68;4.97;;;;;;;;;;5055896;28;20466;-60
2023/06/18 05:21:40;;;;;;;5.95;5.35;;;;;;;;;;5055975;28;20029;-60
2023/06/18 05:24:07;;;;;;;6.07;5.38;;;;;;;;;;5055923;28;20097;-60
2023/06/18 05:26:33;;;;;;;6.53;5.93;;;;;;;;;;5056437;28;20110;-60
2023/06/18 05:28:59;;;;;;;7.72;6.03;;;;;;;;;;5056154;28;20031;-60
2023/06/18 05:31:26;;;;;;;6.20;5.63;;;;;;;;;;5055969;28;20116;-60
2023/06/18 05:33:52;;;;;;;6.85;5.95;;;;;;;;;;5056212;28;20036;-60
2023/06/18 05:36:18;;;;;;;7.65;5.72;;;;;;;;;;5056018;28;20021;-60
2023/06/18 05:38:43;;;;;;;7.90;5.85;;;;;;;;;;5055358;28;20036;-60
2023/06/18 05:41:09;;;;;;;7.45;6.78;;;;;;;;;;5055919;28;20025;-60
2023/06/18 05:43:35;;;;;;;8.35;7.25;;;;;;;;;;5055489;28;20112;-60
2023/06/18 05:46:01;;;;;;;6.30;5.53;;;;;;;;;;5056037;28;20021;-60
2023/06/18 05:48:27;;;;;;;7.00;5.95;;;;;;;;;;5055417;28;20112;-60
2023/06/18 05:50:53;;;;;;;7.10;6.15;;;;;;;;;;5055114;28;20025;-60
2023/06/18 05:53:19;;;;;;;7.60;6.60;;;;;;;;;;5055338;28;20021;-60
2023/06/18 05:55:45;;;;;;;8.10;6.20;;;;;;;;;;5055912;28;20516;-60
2023/06/18 05:58:11;;;;;;;6.93;6.22;;;;;;;;;;5055061;28;20375;-59
2023/06/18 06:00:37;;;;;;;6.78;6.05;;;;;;;;;;5055152;28;20037;-59
2023/06/18 06:03:03;;;;;;;8.55;6.45;;;;;;;;;;5055495;28;20036;-59
2023/06/18 06:05:29;;;;;;;5.85;5.35;;;;;;;;;;5055414;28;20021;-59
2023/06/18 06:07:55;;;;;;;7.53;6.30;;;;;;;;;;5055371;28;20029;-59
2023/06/18 06:10:21;;;;;;;7.10;6.38;;;;;;;;;;5055033;28;20029;-59
2023/06/18 06:12:47;;;;;;;6.45;5.78;;;;;;;;;;5055493;28;20536;-59
2023/06/18 06:15:13;;;;;;;6.53;5.20;;;;;;;;;;5054797;28;20045;-59
2023/06/18 06:17:39;;;;;;;6.85;6.15;;;;;;;;;;5055176;28;20074;-59
2023/06/18 06:20:06;;;;;;;7.43;6.72;;;;;;;;;;5054748;28;20076;-59
2023/06/18 06:22:32;;;;;;;7.47;6.75;;;;;;;;;;5054854;28;20029;-59
2023/06/18 06:24:58;;;;;;;10.52;6.13;;;;;;;;;;5055253;28;20052;-59
2023/06/18 06:27:24;;;;;;;7.30;5.40;;;;;;;;;;5055088;28;20028;-59
2023/06/18 06:29:50;;;;;;;6.60;5.47;;;;;;;;;;5054388;28;20021;-59
2023/06/18 06:32:16;;;;;;;7.47;6.55;;;;;;;;;;5054576;28;20079;-59
2023/06/18 06:34:42;;;;;;;7.05;6.05;;;;;;;;;;5054608;28;20478;-59
2023/06/18 06:37:08;;;;;;;5.78;5.15;;;;;;;;;;5055160;28;20025;-59
2023/06/18 06:39:34;;;;;;;5.72;5.13;;;;;;;;;;5054408;28;20056;-59
2023/06/18 06:42:00;;;;;;;8.32;5.70;;;;;;;;;;5054540;28;20025;-59
2023/06/18 06:44:26;;;;;;;6.03;5.07;;;;;;;;;;5055160;28;20346;-59
2023/06/18 06:46:52;;;;;;;5.97;5.38;;;;;;;;;;5054274;28;20059;-59
2023/06/18 06:49:18;;;;;;;7.93;5.72;;;;;;;;;;5054319;28;20057;-59
2023/06/18 06:51:44;;;;;;;5.95;5.38;;;;;;;;;;5054193;28;20079;-59
2023/06/18 06:54:11;;;;;;;5.30;4.57;;;;;;;;;;5054198;28;20024;-59
2023/06/18 06:56:37;;;;;;;5.68;5.10;;;;;;;;;;5054015;28;20025;-59
2023/06/18 06:59:03;;;;;;;6.40;5.65;;;;;;;;;;5053676;28;20139;-60
2023/06/18 07:01:29;;;;;;;5.85;5.25;;;;;;;;;;5053999;28;20037;-59
2023/06/18 07:03:55;;;;;;;5.93;5.32;;;;;;;;;;5054115;28;20052;-60
2023/06/18 07:06:21;;;;;;;6.75;5.95;;;;;;;;;;5054684;28;20029;-60
2023/06/18 07:08:47;;;;;;;7.03;5.50;;;;;;;;;;5053302;28;20028;-60
2023/06/18 07:11:13;;;;;;;6.93;4.82;;;;;;;;;;5053971;28;20024;-59
2023/06/18 07:13:39;;;;;;;5.95;5.15;;;;;;;;;;5053952;28;20021;-60
2023/06/18 07:16:05;;;;;;;5.82;4.95;;;;;;;;;;5054314;28;20053;-60
2023/06/18 07:18:31;;;;;;;5.75;5.07;;;;;;;;;;5054184;28;20021;-59
2023/06/18 07:20:57;;;;;;;5.72;4.50;;;;;;;;;;5053728;28;20021;-59
2023/06/18 07:23:23;;;;;;;6.82;5.47;;;;;;;;;;5054047;28;20031;-60
2023/06/18 07:25:49;;;;;;;5.65;4.95;;;;;;;;;;5053689;28;20024;-60
2023/06/18 07:28:16;;;;;;;5.70;5.05;;;;;;;;;;5054182;28;20021;-60
2023/06/18 07:30:41;;;;;;;7.25;4.75;;;;;;;;;;5053501;28;20033;-60
2023/06/18 07:33:07;;;;;;;4.25;3.85;;;;;;;;;;5053712;28;20021;-60
2023/06/18 07:35:33;;;;;;;4.93;4.43;;;;;;;;;;5053662;28;20032;-60
2023/06/18 07:38:00;;;;;;;7.15;4.57;;;;;;;;;;5054137;28;20117;-60
2023/06/18 07:40:28;;;;;;;6.70;4.65;;;;;;;;;;5053495;28;20079;-60
2023/06/18 07:42:54;;;;;;;5.57;4.28;;;;;;;;;;5054111;28;20033;-60
2023/06/18 07:45:20;;;;;;;5.13;4.63;;;;;;;;;;5054371;28;20025;-60
2023/06/18 07:47:46;;;;;;;5.88;4.75;;;;;;;;;;5053871;28;20025;-60
2023/06/18 07:50:12;;;;;;;5.00;4.50;;;;;;;;;;5054098;28;20527;-60
2023/06/18 07:52:38;;;;;;;5.80;4.80;;;;;;;;;;5053545;28;20025;-60
2023/06/18 07:55:04;;;;;;;7.03;5.45;;;;;;;;;;5054049;28;20031;-60
2023/06/18 07:57:30;;;;;;;4.88;4.43;;;;;;;;;;5054313;28;20022;-60
2023/06/18 07:59:56;;;;;;;5.18;4.65;;;;;;;;;;5053356;28;20025;-60
2023/06/18 08:02:22;;;;;;;4.80;4.25;;;;;;;;;;5053479;28;20036;-60
2023/06/18 08:04:48;;;;;;;4.75;4.25;;;;;;;;;;5053487;28;20017;-60
2023/06/18 08:07:14;;;;;;;5.18;4.53;;;;;;;;;;5053673;28;20363;-60
2023/06/18 08:09:40;;;;;;;5.82;4.82;;;;;;;;;;5053395;28;20021;-60
2023/06/18 08:12:06;;;;;;;5.82;4.63;;;;;;;;;;5053863;28;20033;-60
2023/06/18 08:14:32;;;;;;;5.50;4.72;;;;;;;;;;5053175;28;20029;-60
2023/06/18 08:16:58;;;;;;;5.18;4.38;;;;;;;;;;5053373;28;20106;-60
2023/06/18 08:19:24;;;;;;;5.55;4.65;;;;;;;;;;5054116;28;20021;-60
2023/06/18 08:21:52;;;;;;;7.30;4.18;;;;;;;;;;5057083;28;20036;-60
2023/06/18 08:24:18;;;;;;;6.82;4.85;;;;;;;;;;5057425;28;20036;-60
2023/06/18 08:26:44;;;;;;;6.07;4.43;;;;;;;;;;5057430;28;20174;-60
2023/06/18 08:29:10;;;;;;;4.97;3.80;;;;;;;;;;5056859;28;20083;-60
2023/06/18 08:31:40;;;;;;;5.30;4.80;;;;;;;;;;5056912;28;20036;-60
2023/06/18 08:34:06;;;;;;;9.80;4.97;;;;;;;;;;5057442;28;20108;-60
2023/06/18 08:36:32;;;;;;;5.00;4.40;;;;;;;;;;5056941;28;20021;-60
2023/06/18 08:38:58;;;;;;;6.28;4.38;;;;;;;;;;5056882;28;20025;-60
2023/06/18 08:41:26;;;;;;;5.88;4.85;;;;;;;;;;5055389;28;20033;-60
2023/06/18 08:43:52;;;;;;;5.72;4.30;;;;;;;;;;5056656;28;20032;-60
2023/06/18 08:46:18;;;;;;;4.82;4.38;;;;;;;;;;5056642;28;20021;-60
2023/06/18 08:48:48;;;;;;;5.93;4.22;;;;;;;;;;5056248;28;20486;-60
2023/06/18 08:51:16;;;;;;;4.95;4.07;;;;;;;;;;5056906;28;20060;-60
2023/06/18 08:53:44;;;;;;;6.90;4.38;;;;;;;;;;5056551;28;20061;-60
2023/06/18 08:56:11;;;;;;;6.43;4.70;;;;;;;;;;5056837;28;20055;-60
2023/06/18 08:58:51;;;;;;;6.55;4.25;;;;;;;;;;5056476;28;20032;-60
2023/06/18 09:01:17;;;;;;;;;;;;;;;;;;5056820;28;20459;-60
2023/06/18 09:03:43;;;;;;;4.57;3.97;;;;;;;;;;5057167;28;19962;-60
2023/06/18 09:06:10;;;;;;;5.50;4.47;;;;;;;;;;5056064;28;20021;-60
2023/06/18 09:08:37;;;;;;;6.32;4.35;;;;;;;;;;5056661;28;20032;-60
2023/06/18 09:11:04;;;;;;;5.70;4.78;;;;;;;;;;5056450;28;20048;-60
2023/06/18 09:13:30;;;;;;;6.95;5.10;;;;;;;;;;5056120;28;20564;-60
2023/06/18 09:15:56;;;;;;;8.57;4.60;;;;;;;;;;5056117;28;20079;-60
2023/06/18 09:18:23;;;;;;;7.68;4.95;;;;;;;;;;5055904;28;20018;-60
2023/06/18 09:20:49;;;;;;;4.88;4.03;;;;;;;;;;5056204;28;20036;-60
2023/06/18 09:23:15;;;;;;;7.75;4.57;;;;;;;;;;5055631;28;20483;-60
2023/06/18 09:25:41;;;;;;;4.72;4.13;;;;;;;;;;5056130;28;20025;-60
2023/06/18 09:28:08;;;;;;;4.30;3.90;;;;;;;;;;5056473;28;20021;-60
2023/06/18 09:30:34;;;;;;;5.30;4.30;;;;;;;;;;5056127;28;20025;-60
2023/06/18 09:33:00;;;;;;;4.55;3.67;;;;;;;;;;5055945;28;20032;-60
2023/06/18 09:35:27;;;;;;;4.10;3.55;;;;;;;;;;5055696;28;20021;-60
2023/06/18 09:37:53;;;;;;;6.22;4.45;;;;;;;;;;5055982;28;20025;-60
2023/06/18 09:40:19;;;;;;;4.38;3.70;;;;;;;;;;5055799;28;20375;-60
2023/06/18 09:42:46;;;;;;;4.45;3.90;;;;;;;;;;5055556;28;20459;-60
2023/06/18 09:45:14;;;;;;;10.07;4.60;;;;;;;;;;5055537;28;20025;-60
2023/06/18 09:47:49;;;;;;;5.28;4.53;;;;;;;;;;5055807;28;20028;-60
2023/06/18 09:50:15;;;;;;;5.00;4.18;;;;;;;;;;5056185;28;20324;-60
2023/06/18 09:52:45;;;;;;;4.70;4.03;;;;;;;;;;5055936;28;20018;-60
2023/06/18 09:55:31;;;;;;;8.02;4.68;;;;;;;;;;5055350;28;20100;-60
2023/06/18 09:57:58;;;;;;;4.50;3.92;;;;;;;;;;5055817;28;20029;-60
2023/06/18 10:00:24;;;;;;;4.18;3.70;;;;;;;;;;5055255;28;20075;-60
2023/06/18 10:02:50;;;;;;;4.25;3.83;;;;;;;;;;5055739;28;20355;-60
2023/06/18 10:05:16;;;;;;;3.85;3.33;;;;;;;;;;5055076;28;20032;-60
2023/06/18 10:07:42;;;;;;;4.95;4.05;;;;;;;;;;5055807;28;20025;-60
2023/06/18 10:10:15;;;;;;;4.20;3.63;;;;;;;;;;5055072;28;20029;-60
2023/06/18 10:12:47;;;;;;;4.20;3.55;;;;;;;;;;5055604;28;20021;-60
2023/06/18 10:15:14;;;;;;;4.57;3.80;;;;;;;;;;5054681;28;20049;-60
2023/06/18 10:17:47;;;;;;;5.88;4.53;;;;;;;;;;5055455;28;20029;-60
2023/06/18 10:20:14;;;;;;;4.07;3.40;;;;;;;;;;5055111;28;20029;-60
2023/06/18 10:22:50;;;;;;;4.45;3.85;;;;;;;;;;5054726;28;20056;-60
2023/06/18 10:25:16;;;;;;;5.40;4.07;;;;;;;;;;5054960;28;20063;-60
2023/06/18 10:27:42;;;;;;;5.40;3.95;;;;;;;;;;5054579;28;20418;-60
2023/06/18 10:30:08;;;;;;;4.10;3.70;;;;;;;;;;5055010;28;20029;-60
2023/06/18 10:32:35;;;;;;;6.13;3.78;;;;;;;;;;5054494;28;20025;-60
2023/06/18 10:35:02;;;;;;;5.45;4.45;;;;;;;;;;5054628;28;20486;-60
2023/06/18 10:37:34;;;;;;;5.35;4.70;;;;;;;;;;5054986;28;20386;-60
2023/06/18 10:40:00;;;;;;;6.50;3.88;;;;;;;;;;5054435;28;20035;-60
2023/06/18 10:42:26;;;;;;;3.75;3.35;;;;;;;;;;5054145;28;20375;-60
2023/06/18 10:44:57;;;;;;;5.38;4.30;;;;;;;;;;5053729;28;20025;-60
2023/06/18 10:47:23;;;;;;;4.95;4.25;;;;;;;;;;5054386;28;20147;-60
2023/06/18 10:50:01;;;;;;;5.70;4.30;;;;;;;;;;5054288;28;20036;-60
2023/06/18 10:52:31;;;;;;;6.97;3.92;;;;;;;;;;5054184;28;20047;-60
2023/06/18 10:55:20;;;;;;;4.53;4.05;;;;;;;;;;5054854;28;20018;-60
2023/06/18 10:57:47;;;;;;;4.43;3.80;;;;;;;;;;5051661;28;20455;-60
2023/06/18 11:00:21;;;;;;;4.95;3.97;;;;;;;;;;5054086;28;20036;-60
2023/06/18 11:02:50;;;;;;;4.60;3.72;;;;;;;;;;5054660;28;20028;-60
2023/06/18 11:05:36;;;;;;;5.90;3.40;;;;;;;;;;5054252;28;20109;-60
2023/06/18 11:08:03;;;;;;;5.43;3.90;;;;;;;;;;5049903;28;20116;-61
2023/06/18 11:10:33;;;;;;;4.68;3.35;;;;;;;;;;5053900;28;20481;-61
2023/06/18 11:12:59;;;;;;;4.35;3.38;;;;;;;;;;5053885;28;20035;-61
2023/06/18 11:15:25;;;;;;;4.22;3.53;;;;;;;;;;5053952;28;20471;-61
2023/06/18 11:17:53;;;;;;;3.75;3.38;;;;;;;;;;5053877;28;20100;-61
2023/06/18 11:20:19;;;;;;;4.38;3.75;;;;;;;;;;5053711;28;20025;-61
2023/06/18 11:22:46;;;;;;;4.32;3.47;;;;;;;;;;5054012;28;20032;-61
2023/06/18 11:25:13;;;;;;;3.95;3.50;;;;;;;;;;5053902;28;20021;-61
2023/06/18 11:27:40;;;;;;;3.78;2.92;;;;;;;;;;5054259;28;20017;-61
2023/06/18 11:30:08;;;;;;;4.57;3.47;;;;;;;;;;5053655;28;20025;-62
2023/06/18 11:32:33;;;;;;;4.75;2.78;;;;;;;;;;5053723;28;20494;-60
2023/06/18 11:35:00;;;;;;;5.07;3.08;;;;;;;;;;5053382;28;20056;-60
2023/06/18 11:37:27;;;;;;;4.35;3.33;;;;;;;;;;5054230;28;20029;-59
2023/06/18 11:39:54;;;;;;;5.28;3.83;;;;;;;;;;5053726;28;20459;-60
2023/06/18 11:42:20;;;;;;;4.50;3.10;;;;;;;;;;5053512;28;20459;-60
2023/06/18 11:44:46;;;;;;;4.35;2.75;;;;;;;;;;5053877;28;20021;-60
2023/06/18 11:47:12;;;;;;;3.67;2.92;;;;;;;;;;5054368;28;20323;-60
2023/06/18 11:49:42;;;;;;;3.85;2.97;;;;;;;;;;5053547;28;20028;-60
2023/06/18 11:52:08;;;;;;;3.63;2.70;;;;;;;;;;5053428;28;20029;-60
2023/06/18 11:54:40;;;;;;;4.40;2.72;;;;;;;;;;5054314;28;20029;-60
2023/06/18 11:57:15;;;;;;;3.33;2.97;;;;;;;;;;5057853;28;20511;-60
2023/06/18 11:59:42;;;;;;;3.88;3.10;;;;;;;;;;5057911;28;20052;-60
2023/06/18 12:02:14;;;;;;;4.35;3.10;;;;;;;;;;5057393;28;20399;-60
2023/06/18 12:04:40;;;;;;;3.55;3.17;;;;;;;;;;5057362;28;20103;-60
2023/06/18 12:07:07;;;;;;;4.38;3.15;;;;;;;;;;5057369;28;20060;-60
2023/06/18 12:09:33;;;;;;;4.80;3.60;;;;;;;;;;5058093;28;20108;-60
2023/06/18 12:12:07;;;;;;;3.05;2.75;;;;;;;;;;5057222;28;20025;-60
2023/06/18 12:14:36;;;;;;;4.03;2.88;;;;;;;;;;5057497;28;20087;-60
2023/06/18 12:17:05;;;;;;;3.28;2.72;;;;;;;;;;5057155;28;20514;-60
2023/06/18 12:19:32;;;;;;;4.63;2.65;;;;;;;;;;5057031;28;20467;-60
2023/06/18 12:21:58;;;;;;;4.05;3.28;;;;;;;;;;5057039;28;20035;-60
2023/06/18 12:24:28;;;;;;;4.30;3.50;;;;;;;;;;5057455;28;20489;-60
2023/06/18 12:26:54;;;;;;;3.95;3.03;;;;;;;;;;5057078;28;20108;-60
2023/06/18 12:29:20;;;;;;;3.53;2.88;;;;;;;;;;5056975;28;20096;-60
2023/06/18 12:32:01;;;;;;;3.28;2.58;;;;;;;;;;5057375;28;20536;-59
2023/06/18 12:34:27;;;;;;;3.90;3.13;;;;;;;;;;5057431;28;20379;-60
2023/06/18 12:36:56;;;;;;;3.78;3.08;;;;;;;;;;5057370;28;20044;-60
2023/06/18 12:39:22;;;;;;;3.42;2.97;;;;;;;;;;5057054;28;20524;-60
2023/06/18 12:41:48;;;;;;;3.65;3.28;;;;;;;;;;5056636;28;20108;-60
2023/06/18 12:44:14;;;;;;;4.88;3.03;;;;;;;;;;5056603;28;20029;-60
2023/06/18 12:46:43;;;;;;;3.83;3.00;;;;;;;;;;5057224;28;20033;-59
2023/06/18 12:49:09;;;;;;;3.87;3.20;;;;;;;;;;5056914;28;20498;-60
2023/06/18 12:51:39;;;;;;;3.47;2.83;;;;;;;;;;5056508;28;20061;-60
2023/06/18 12:54:13;;;;;;;4.15;3.40;;;;;;;;;;5056453;28;20122;-60
2023/06/18 12:56:46;;;;;;;3.85;3.05;;;;;;;;;;5056330;28;20025;-60
2023/06/18 12:59:17;;;;;;;3.60;3.10;;;;;;;;;;5056908;28;20071;-60
2023/06/18 13:01:44;;;;;;;3.33;3.03;;;;;;;;;;5056292;28;20028;-60
2023/06/18 13:04:10;;;;;;;4.38;3.50;;;;;;;;;;5056764;28;20039;-60
2023/06/18 13:06:36;;;;;;;3.22;2.80;;;;;;;;;;5055345;28;20025;-60
2023/06/18 13:09:04;;;;;;;4.05;3.17;;;;;;;;;;5056713;28;20090;-60
2023/06/18 13:11:31;;;;;;;4.43;3.05;;;;;;;;;;5056112;28;20510;-60
2023/06/18 13:13:57;;;;;;;3.38;3.03;;;;;;;;;;5056644;28;20036;-60
2023/06/18 13:16:23;;;;;;;3.47;3.15;;;;;;;;;;5056649;28;20048;-60
2023/06/18 13:18:49;;;;;;;6.57;3.55;;;;;;;;;;5056043;28;20017;-60
2023/06/18 13:21:15;;;;;;;3.85;3.50;;;;;;;;;;5055907;28;20032;-60
2023/06/18 13:23:41;;;;;;;4.45;3.15;;;;;;;;;;5056123;28;20025;-60
2023/06/18 13:26:07;;;;;;;5.25;3.35;;;;;;;;;;5055934;28;20459;-60
2023/06/18 13:28:33;;;;;;;4.10;3.40;;;;;;;;;;5056106;28;20367;-60
2023/06/18 13:30:59;;;;;;;4.15;3.35;;;;;;;;;;5055337;28;20029;-60
2023/06/18 13:33:25;;;;;;;5.70;3.53;;;;;;;;;;5055643;28;20463;-60
2023/06/18 13:35:51;;;;;;;3.92;3.20;;;;;;;;;;5055644;28;20100;-60
2023/06/18 13:38:17;;;;;;;3.92;2.90;;;;;;;;;;5055229;28;20021;-60
2023/06/18 13:40:43;;;;;;;4.75;3.38;;;;;;;;;;5055891;28;20111;-60
2023/06/18 13:43:11;;;;;;;4.35;3.63;;;;;;;;;;5055428;28;20064;-60
2023/06/18 13:45:39;;;;;;;3.78;2.88;;;;;;;;;;5055360;28;20029;-60
2023/06/18 13:48:05;;;;;;;3.97;3.53;;;;;;;;;;5055976;28;20032;-60
2023/06/18 13:50:31;;;;;;;4.68;3.70;;;;;;;;;;5055454;28;20031;-60
2023/06/18 13:52:57;;;;;;;4.55;3.50;;;;;;;;;;5055729;28;20068;-60
2023/06/18 13:55:23;;;;;;;3.83;3.15;;;;;;;;;;5055274;28;20025;-61
2023/06/18 13:57:49;;;;;;;4.18;3.50;;;;;;;;;;5055248;28;20482;-60
2023/06/18 14:00:16;;;;;;;3.28;2.67;;;;;;;;;;5055384;28;20025;-60
2023/06/18 14:02:42;;;;;;;7.50;3.65;;;;;;;;;;5054941;28;20028;-60
2023/06/18 14:05:08;;;;;;;5.97;3.00;;;;;;;;;;5055732;28;20443;-60
2023/06/18 14:07:34;;;;;;;4.38;3.63;;;;;;;;;;5055061;28;20035;-60
2023/06/18 14:10:00;;;;;;;4.15;3.28;;;;;;;;;;5054668;28;20593;-61
2023/06/18 14:12:27;;;;;;;3.78;3.38;;;;;;;;;;5055545;28;20051;-61
2023/06/18 14:14:53;;;;;;;4.13;3.58;;;;;;;;;;5054710;28;20148;-61
2023/06/18 14:17:19;;;;;;;4.03;3.63;;;;;;;;;;5055253;28;20043;-61
2023/06/18 14:19:45;;;;;;;3.63;3.33;;;;;;;;;;5054958;28;20147;-61
2023/06/18 14:22:11;;;;;;;4.28;3.10;;;;;;;;;;5054966;28;20022;-61
2023/06/18 14:24:39;;;;;;;4.80;3.80;;;;;;;;;;5055222;28;20068;-61
2023/06/18 14:27:06;;;;;;;4.53;3.53;;;;;;;;;;5054643;28;20029;-61
2023/06/18 14:29:32;;;;;;;4.57;3.92;;;;;;;;;;5054798;28;20052;-60
2023/06/18 14:31:58;;;;;;;4.15;3.75;;;;;;;;;;5054677;28;20142;-61
2023/06/18 14:34:24;;;;;;;3.67;3.25;;;;;;;;;;5055099;28;20031;-61
2023/06/18 14:36:50;;;;;;;4.47;3.30;;;;;;;;;;5055120;28;20025;-61
2023/06/18 14:39:16;;;;;;;9.75;3.40;;;;;;;;;;5054726;28;20024;-61
2023/06/18 14:41:42;;;;;;;4.68;3.63;;;;;;;;;;5053991;28;20127;-61